Wright Patterson Air Force Base
KFFO : rendu visible

Aérodrome :











RETROUVEZ-NOUS SUR...

 
LOGIN :

S'inscrire | Disclaimer

   EN    FR    IT 

 









Légende :    VFR   VFR Marginal   IFR   IFR Intensif   IFR Très Intensif
Visi : 
Plafond : 
>= 8 km
>= 3000ft
5 à 8 km
1000 à 3000 ft
1500m à 5 km
500 à 1000 ft
800 à 1500m
200 à 500 ft
< 800m
< 200 ft
Symboles :   Orages  Brouillard  Fortes neiges  Fortes précipitations  Vent > 20 kt






- Altitude de l'aérodrome : 823 ft


KFFO - Wright Patterson Air Force Base

DERNIER METAR :
  • 242356Z AUTO 16005KT 10SM BKN060 28/19 A2998 RMK AO2 SLP150 T02770187 10301 20277 55001

METARs EXPIRÉS :
  • 242256Z AUTO 15005KT 10SM FEW060 SCT150 28/18 A2997 RMK AO2 LTG DSNT S SLP147 T02810179
  • 242156Z AUTO 11004KT 10SM SCT060 29/18 A2998 RMK AO2 SLP150 T02930181

TAF TAF KFFO
Valide du 24 à 19h jusqu'au 26 à 01h UTC


241900Z 2419/2601 VRB06KT 9999 FEW050 FEW060 QNH3000INS
BECMG 2420/2421 VRB06KT 9999 BKN040 QNH3000INS
BECMG 2508/2509 VRB06KT 9000 BR BKN030 QNH3002INS
BECMG 2516/2517 19012KT 9000 -SHRA BKN035 QNH3004INS
TEMPO 2517/2519 18020G30KT 8000 -TSRA BKN035CB
BECMG 2520/2521 VRB06KT 9999 NSW SCT050 QNH3002INS TX30/2519Z TN23/2510Z
FIR KZID / Amérique du Nord



MET'MAP, la Météo Aéronautique d'un coup d'oeil ! - Copyright ORBIFLY Décembre 2007 - Disclaimer

ORBIFLY MET'MAP TEAM :

Programmation & Développement : Alexandra Zaïnal
Sur une idée originale de : Baudouin d'Aumeries
Assistance à la programmation : Marc-Olivier Méhu
Soutien technique & logistique : Manuel Goepfert

Contact : metmap@orbifly.com




SOURCES & CREDITS :

   NOAA       Earth
Advisory